Overview Statistics Trail Chart Weather Telemetry Raw packets
 

This is the latest recevied weather packets stored in our database for station/object W7TRD. If no packets are shown the sender has not sent any weather packets the latest 10 day(s).

<< 71 72 73 74 75 76 77 >>
Time Temp. Humidity Pressure Rain* Wind** Luminosity Snow
1788112805 16.67° C 69% 1021.9 hPa 0 mm - 187 W/m² -
1788112505 16.67° C 69% 1021.7 hPa 0 mm - 203 W/m² -
1788112200 16.67° C 69% 1021.5 hPa 0 mm - 177 W/m² -
1788111896 16.67° C 71% 1021.6 hPa 0 mm - 139 W/m² -
1788111596 16.67° C 71% 1021.8 hPa 0 mm - 108 W/m² -
1788111292 17.22° C 70% 1021.7 hPa 0 mm - 116 W/m² -
1788110987 18.89° C 66% 1021.7 hPa 0 mm - 228 W/m² -
1788110683 17.78° C 70% 1021.7 hPa 0 mm - 578 W/m² -
1788110378 16.11° C 74% 1021.9 hPa 0 mm - 138 W/m² -
1788110075 17.78° C 73% 1021.7 hPa 0 mm - 251 W/m² -
1788109774 17.78° C 68% 1021.8 hPa 0 mm - 206 W/m² -
1788109474 16.11° C 75% 1022 hPa 0 mm - 432 W/m² -
1788109172 15.56° C 76% 1021.6 hPa 0 mm - 114 W/m² -
1788108869 15.56° C 77% 1021.9 hPa 0 mm - 446 W/m² -
1788108565 16.11° C 75% 1022 hPa 0 mm - 171 W/m² -
1788108261 16.67° C 75% 1022 hPa 0 mm - 170 W/m² -
1788107968 17.22° C 74% 1021.9 hPa 0 mm - 467 W/m² -
1788107653 16.67° C 77% 1021.8 hPa 0 mm - 452 W/m² -
1788107352 16.67° C 74% 1021.8 hPa 0 mm - 404 W/m² -
1788107049 17.22° C 74% 1021.8 hPa 0 mm - 110 W/m² -
1788106749 15.56° C 79% 1021.9 hPa 0 mm - 156 W/m² -
1788106449 15.56° C 79% 1021.8 hPa 0 mm - 378 W/m² -
1788106149 16.11° C 77% 1021.8 hPa 0 mm - 364 W/m² -
1788105845 15° C 81% 1021.8 hPa 0 mm - 337 W/m² -
1788105540 14.44° C 83% 1022.1 hPa 0 mm - 107 W/m² -

* Rain latest hour (hover to see other rain measurements)
** Current wind speed in m/s (hover to see current wind gust speed)